sensor_id;sensor_type;location;lat;lon;timestamp;pressure;altitude;pressure_sealevel;temperature;humidity
47366;BME280;33105;47.964;7.982;2023-11-19T00:00:00;96775.13;;;9.39;100.00
47366;BME280;33105;47.964;7.982;2023-11-19T00:03:01;96783.84;;;9.63;100.00
47366;BME280;33105;47.964;7.982;2023-11-19T00:06:02;96757.06;;;9.81;100.00
47366;BME280;33105;47.964;7.982;2023-11-19T00:09:07;96772.50;;;9.98;100.00
47366;BME280;33105;47.964;7.982;2023-11-19T00:12:09;96758.38;;;10.06;100.00
47366;BME280;33105;47.964;7.982;2023-11-19T00:15:13;96790.94;;;10.12;100.00
47366;BME280;33105;47.964;7.982;2023-11-19T00:18:15;96753.38;;;10.25;100.00
47366;BME280;33105;47.964;7.982;2023-11-19T00:21:17;96785.59;;;10.22;100.00
47366;BME280;33105;47.964;7.982;2023-11-19T00:24:18;96772.59;;;10.35;100.00
47366;BME280;33105;47.964;7.982;2023-11-19T00:27:19;96766.78;;;10.26;100.00
47366;BME280;33105;47.964;7.982;2023-11-19T00:30:21;96746.28;;;10.23;100.00
47366;BME280;33105;47.964;7.982;2023-11-19T00:33:22;96759.09;;;10.23;100.00
47366;BME280;33105;47.964;7.982;2023-11-19T00:36:23;96760.72;;;10.19;100.00
47366;BME280;33105;47.964;7.982;2023-11-19T00:39:24;96744.69;;;10.28;100.00
47366;BME280;33105;47.964;7.982;2023-11-19T00:42:26;96764.06;;;10.26;100.00
47366;BME280;33105;47.964;7.982;2023-11-19T00:45:28;96754.56;;;10.34;100.00
47366;BME280;33105;47.964;7.982;2023-11-19T00:48:30;96752.97;;;10.38;100.00
47366;BME280;33105;47.964;7.982;2023-11-19T00:51:32;96746.91;;;10.31;100.00
47366;BME280;33105;47.964;7.982;2023-11-19T00:54:36;96730.56;;;10.41;100.00
47366;BME280;33105;47.964;7.982;2023-11-19T00:57:37;96739.63;;;10.46;100.00
47366;BME280;33105;47.964;7.982;2023-11-19T01:00:39;96735.34;;;10.55;100.00
47366;BME280;33105;47.964;7.982;2023-11-19T01:03:41;96735.66;;;10.64;100.00
47366;BME280;33105;47.964;7.982;2023-11-19T01:06:42;96715.88;;;10.84;100.00
47366;BME280;33105;47.964;7.982;2023-11-19T01:09:47;96705.91;;;10.63;100.00
47366;BME280;33105;47.964;7.982;2023-11-19T01:12:49;96706.22;;;10.71;100.00
47366;BME280;33105;47.964;7.982;2023-11-19T01:15:50;96707.88;;;10.77;100.00
47366;BME280;33105;47.964;7.982;2023-11-19T01:18:52;96705.13;;;10.72;100.00
47366;BME280;33105;47.964;7.982;2023-11-19T01:21:54;96687.09;;;10.71;100.00
47366;BME280;33105;47.964;7.982;2023-11-19T01:24:55;96687.19;;;10.86;100.00
47366;BME280;33105;47.964;7.982;2023-11-19T01:27:57;96689.09;;;10.86;100.00
47366;BME280;33105;47.964;7.982;2023-11-19T01:30:59;96727.88;;;10.83;100.00
47366;BME280;33105;47.964;7.982;2023-11-19T01:34:00;96698.69;;;10.88;100.00
47366;BME280;33105;47.964;7.982;2023-11-19T01:37:03;96707.13;;;10.87;100.00
47366;BME280;33105;47.964;7.982;2023-11-19T01:40:05;96708.81;;;10.98;100.00
47366;BME280;33105;47.964;7.982;2023-11-19T01:43:09;96730.09;;;10.91;100.00
47366;BME280;33105;47.964;7.982;2023-11-19T01:46:13;96723.47;;;10.77;100.00
47366;BME280;33105;47.964;7.982;2023-11-19T01:49:15;96718.84;;;10.82;100.00
47366;BME280;33105;47.964;7.982;2023-11-19T01:52:19;96729.97;;;10.71;100.00
47366;BME280;33105;47.964;7.982;2023-11-19T01:55:21;96727.03;;;10.77;100.00
47366;BME280;33105;47.964;7.982;2023-11-19T01:58:23;96740.03;;;10.60;100.00
47366;BME280;33105;47.964;7.982;2023-11-19T02:01:26;96732.88;;;10.54;100.00
47366;BME280;33105;47.964;7.982;2023-11-19T02:04:28;96734.03;;;10.63;100.00
47366;BME280;33105;47.964;7.982;2023-11-19T02:07:30;96726.09;;;10.62;100.00
47366;BME280;33105;47.964;7.982;2023-11-19T02:10:33;96726.81;;;10.47;100.00
47366;BME280;33105;47.964;7.982;2023-11-19T02:13:37;96732.00;;;10.48;100.00
47366;BME280;33105;47.964;7.982;2023-11-19T02:16:43;96740.75;;;10.50;100.00
47366;BME280;33105;47.964;7.982;2023-11-19T02:19:44;96729.00;;;10.50;100.00
47366;BME280;33105;47.964;7.982;2023-11-19T02:22:47;96716.44;;;10.49;100.00
47366;BME280;33105;47.964;7.982;2023-11-19T02:29:13;96710.63;;;10.40;100.00
47366;BME280;33105;47.964;7.982;2023-11-19T02:32:17;96710.84;;;10.29;100.00
47366;BME280;33105;47.964;7.982;2023-11-19T02:35:18;96697.53;;;10.37;100.00
47366;BME280;33105;47.964;7.982;2023-11-19T02:38:20;96697.53;;;10.37;100.00
47366;BME280;33105;47.964;7.982;2023-11-19T02:41:23;96708.19;;;10.39;100.00
47366;BME280;33105;47.964;7.982;2023-11-19T02:44:25;96715.31;;;10.45;100.00
47366;BME280;33105;47.964;7.982;2023-11-19T02:47:30;96725.75;;;10.53;100.00
47366;BME280;33105;47.964;7.982;2023-11-19T02:50:32;96710.72;;;10.50;100.00
47366;BME280;33105;47.964;7.982;2023-11-19T02:53:34;96727.31;;;10.39;100.00
47366;BME280;33105;47.964;7.982;2023-11-19T02:56:37;96709.03;;;10.44;100.00
47366;BME280;33105;47.964;7.982;2023-11-19T02:59:40;96741.28;;;10.47;100.00
47366;BME280;33105;47.964;7.982;2023-11-19T03:02:44;96719.66;;;10.41;100.00
47366;BME280;33105;47.964;7.982;2023-11-19T03:05:49;96757.59;;;10.37;100.00
47366;BME280;33105;47.964;7.982;2023-11-19T03:08:51;96731.66;;;10.40;100.00
47366;BME280;33105;47.964;7.982;2023-11-19T03:11:52;96733.97;;;10.53;100.00
47366;BME280;33105;47.964;7.982;2023-11-19T03:14:54;96724.91;;;10.47;100.00
47366;BME280;33105;47.964;7.982;2023-11-19T03:17:56;96725.75;;;10.53;100.00
47366;BME280;33105;47.964;7.982;2023-11-19T03:20:59;96706.16;;;10.61;100.00
47366;BME280;33105;47.964;7.982;2023-11-19T03:24:00;96726.06;;;10.56;100.00
47366;BME280;33105;47.964;7.982;2023-11-19T03:27:10;96696.06;;;10.62;100.00
47366;BME280;33105;47.964;7.982;2023-11-19T03:30:12;96706.94;;;10.56;100.00
47366;BME280;33105;47.964;7.982;2023-11-19T03:33:13;96711.06;;;10.59;100.00
47366;BME280;33105;47.964;7.982;2023-11-19T03:36:16;96714.41;;;10.71;100.00
47366;BME280;33105;47.964;7.982;2023-11-19T03:39:18;96692.53;;;10.71;100.00
47366;BME280;33105;47.964;7.982;2023-11-19T03:42:20;96715.44;;;10.65;100.00
47366;BME280;33105;47.964;7.982;2023-11-19T03:45:22;96728.59;;;10.68;100.00
47366;BME280;33105;47.964;7.982;2023-11-19T03:48:24;96729.41;;;10.69;100.00
47366;BME280;33105;47.964;7.982;2023-11-19T03:51:25;96740.66;;;10.72;100.00
47366;BME280;33105;47.964;7.982;2023-11-19T03:54:29;96731.34;;;10.73;100.00
47366;BME280;33105;47.964;7.982;2023-11-19T03:57:32;96735.94;;;10.63;100.00
47366;BME280;33105;47.964;7.982;2023-11-19T04:00:33;96720.09;;;10.65;100.00
47366;BME280;33105;47.964;7.982;2023-11-19T04:03:36;96730.50;;;10.63;100.00
47366;BME280;33105;47.964;7.982;2023-11-19T04:06:37;96736.78;;;10.68;100.00
47366;BME280;33105;47.964;7.982;2023-11-19T04:09:39;96741.13;;;10.64;100.00
47366;BME280;33105;47.964;7.982;2023-11-19T04:12:40;96762.16;;;10.59;100.00
47366;BME280;33105;47.964;7.982;2023-11-19T04:15:42;96746.63;;;10.69;100.00
47366;BME280;33105;47.964;7.982;2023-11-19T04:18:44;96747.75;;;10.73;100.00
47366;BME280;33105;47.964;7.982;2023-11-19T04:21:45;96731.34;;;10.73;100.00
47366;BME280;33105;47.964;7.982;2023-11-19T04:24:47;96727.75;;;10.68;100.00
47366;BME280;33105;47.964;7.982;2023-11-19T04:27:51;96724.06;;;10.84;100.00
47366;BME280;33105;47.964;7.982;2023-11-19T04:30:53;96728.75;;;10.88;100.00
47366;BME280;33105;47.964;7.982;2023-11-19T04:33:54;96738.03;;;10.87;100.00
47366;BME280;33105;47.964;7.982;2023-11-19T04:36:56;96747.84;;;10.83;100.00
47366;BME280;33105;47.964;7.982;2023-11-19T04:39:58;96743.16;;;10.79;100.00
47366;BME280;33105;47.964;7.982;2023-11-19T04:43:02;96736.56;;;10.75;100.00
47366;BME280;33105;47.964;7.982;2023-11-19T04:46:04;96726.28;;;10.87;100.00
47366;BME280;33105;47.964;7.982;2023-11-19T04:49:05;96714.84;;;11.00;100.00
47366;BME280;33105;47.964;7.982;2023-11-19T04:52:08;96735.34;;;10.98;100.00
47366;BME280;33105;47.964;7.982;2023-11-19T04:55:10;96734.81;;;11.01;100.00
47366;BME280;33105;47.964;7.982;2023-11-19T04:58:14;96711.59;;;11.03;100.00
47366;BME280;33105;47.964;7.982;2023-11-19T05:01:15;96723.88;;;11.01;100.00
47366;BME280;33105;47.964;7.982;2023-11-19T05:04:18;96724.19;;;11.09;100.00
47366;BME280;33105;47.964;7.982;2023-11-19T05:07:21;96726.94;;;11.09;100.00
47366;BME280;33105;47.964;7.982;2023-11-19T05:10:22;96721.75;;;11.13;100.00
47366;BME280;33105;47.964;7.982;2023-11-19T05:13:23;96729.41;;;11.11;100.00
47366;BME280;33105;47.964;7.982;2023-11-19T05:16:26;96725.28;;;11.08;100.00
47366;BME280;33105;47.964;7.982;2023-11-19T05:19:29;96728.31;;;11.12;100.00
47366;BME280;33105;47.964;7.982;2023-11-19T05:22:31;96736.53;;;11.17;100.00
47366;BME280;33105;47.964;7.982;2023-11-19T05:25:34;96742.50;;;11.09;100.00
47366;BME280;33105;47.964;7.982;2023-11-19T05:28:38;96745.25;;;11.09;100.00
47366;BME280;33105;47.964;7.982;2023-11-19T05:31:42;96734.88;;;11.11;100.00
47366;BME280;33105;47.964;7.982;2023-11-19T05:34:44;96741.72;;;11.13;100.00
47366;BME280;33105;47.964;7.982;2023-11-19T05:37:47;96737.34;;;11.17;100.00
47366;BME280;33105;47.964;7.982;2023-11-19T05:40:49;96741.44;;;11.15;100.00
47366;BME280;33105;47.964;7.982;2023-11-19T05:43:51;96733.50;;;11.08;100.00
47366;BME280;33105;47.964;7.982;2023-11-19T05:46:54;96724.50;;;11.18;100.00
47366;BME280;33105;47.964;7.982;2023-11-19T05:49:57;96723.38;;;11.14;100.00
47366;BME280;33105;47.964;7.982;2023-11-19T05:53:00;96734.09;;;11.20;100.00
47366;BME280;33105;47.964;7.982;2023-11-19T05:56:03;96724.19;;;11.14;100.00
47366;BME280;33105;47.964;7.982;2023-11-19T05:59:05;96732.47;;;11.24;100.00
47366;BME280;33105;47.964;7.982;2023-11-19T06:02:17;96731.66;;;11.29;100.00
47366;BME280;33105;47.964;7.982;2023-11-19T06:05:18;96726.44;;;11.22;100.00
47366;BME280;33105;47.964;7.982;2023-11-19T06:08:21;96724.03;;;11.31;100.00
47366;BME280;33105;47.964;7.982;2023-11-19T06:11:23;96732.00;;;11.38;100.00
47366;BME280;33105;47.964;7.982;2023-11-19T06:14:28;96739.88;;;11.29;100.00
47366;BME280;33105;47.964;7.982;2023-11-19T06:17:32;96732.19;;;11.26;100.00
47366;BME280;33105;47.964;7.982;2023-11-19T06:20:34;96739.91;;;11.34;100.00
47366;BME280;33105;47.964;7.982;2023-11-19T06:23:35;96738.28;;;11.38;100.00
47366;BME280;33105;47.964;7.982;2023-11-19T06:26:38;96744.03;;;11.37;100.00
47366;BME280;33105;47.964;7.982;2023-11-19T06:29:41;96747.03;;;11.35;100.00
47366;BME280;33105;47.964;7.982;2023-11-19T06:32:46;96736.91;;;11.36;100.00
47366;BME280;33105;47.964;7.982;2023-11-19T06:35:48;96729.53;;;11.36;100.00
47366;BME280;33105;47.964;7.982;2023-11-19T06:38:51;96736.34;;;11.39;100.00
47366;BME280;33105;47.964;7.982;2023-11-19T06:41:53;96731.72;;;11.44;100.00
47366;BME280;33105;47.964;7.982;2023-11-19T06:44:57;96728.75;;;11.51;100.00
47366;BME280;33105;47.964;7.982;2023-11-19T06:48:03;96723.50;;;11.44;100.00
47366;BME280;33105;47.964;7.982;2023-11-19T06:51:06;96722.97;;;11.37;100.00
47366;BME280;33105;47.964;7.982;2023-11-19T06:54:07;96726.81;;;11.46;100.00
47366;BME280;33105;47.964;7.982;2023-11-19T06:57:08;96728.44;;;11.47;100.00
47366;BME280;33105;47.964;7.982;2023-11-19T07:00:11;96735.91;;;11.62;100.00
47366;BME280;33105;47.964;7.982;2023-11-19T07:03:12;96750.34;;;11.47;100.00
47366;BME280;33105;47.964;7.982;2023-11-19T07:06:14;96744.31;;;11.45;100.00
47366;BME280;33105;47.964;7.982;2023-11-19T07:09:15;96741.06;;;11.53;100.00
47366;BME280;33105;47.964;7.982;2023-11-19T07:12:17;96742.19;;;11.57;100.00
47366;BME280;33105;47.964;7.982;2023-11-19T07:15:18;96742.19;;;11.63;100.00
47366;BME280;33105;47.964;7.982;2023-11-19T07:18:20;96758.53;;;11.47;100.00
47366;BME280;33105;47.964;7.982;2023-11-19T07:21:23;96761.09;;;11.69;100.00
47366;BME280;33105;47.964;7.982;2023-11-19T07:24:24;96755.34;;;11.76;100.00
47366;BME280;33105;47.964;7.982;2023-11-19T07:27:25;96759.78;;;11.82;100.00
47366;BME280;33105;47.964;7.982;2023-11-19T07:30:26;96754.25;;;11.72;100.00
47366;BME280;33105;47.964;7.982;2023-11-19T07:33:28;96750.13;;;11.59;100.00
47366;BME280;33105;47.964;7.982;2023-11-19T07:36:30;96762.47;;;11.72;100.00
47366;BME280;33105;47.964;7.982;2023-11-19T07:39:32;96766.00;;;11.67;100.00
47366;BME280;33105;47.964;7.982;2023-11-19T07:42:34;96761.91;;;11.75;100.00
47366;BME280;33105;47.964;7.982;2023-11-19T07:45:35;96765.28;;;11.82;100.00
47366;BME280;33105;47.964;7.982;2023-11-19T07:48:37;96767.41;;;11.75;100.00
47366;BME280;33105;47.964;7.982;2023-11-19T07:51:38;96763.66;;;11.86;100.00
47366;BME280;33105;47.964;7.982;2023-11-19T07:54:40;96768.28;;;11.90;100.00
47366;BME280;33105;47.964;7.982;2023-11-19T07:57:41;96778.16;;;11.86;100.00
47366;BME280;33105;47.964;7.982;2023-11-19T08:00:43;96782.25;;;11.94;100.00
47366;BME280;33105;47.964;7.982;2023-11-19T08:03:44;96794.28;;;11.88;100.00
47366;BME280;33105;47.964;7.982;2023-11-19T08:06:45;96790.19;;;11.85;100.00
47366;BME280;33105;47.964;7.982;2023-11-19T08:09:47;96783.94;;;12.00;100.00
47366;BME280;33105;47.964;7.982;2023-11-19T08:12:48;96782.31;;;12.09;100.00
47366;BME280;33105;47.964;7.982;2023-11-19T08:15:50;96783.41;;;12.08;100.00
47366;BME280;33105;47.964;7.982;2023-11-19T08:18:51;96790.78;;;12.03;100.00
47366;BME280;33105;47.964;7.982;2023-11-19T08:21:52;96789.69;;;12.14;100.00
47366;BME280;33105;47.964;7.982;2023-11-19T08:24:54;96793.25;;;12.14;100.00
47366;BME280;33105;47.964;7.982;2023-11-19T08:27:55;96797.94;;;12.29;100.00
47366;BME280;33105;47.964;7.982;2023-11-19T08:30:56;96794.41;;;12.44;100.00
47366;BME280;33105;47.964;7.982;2023-11-19T08:33:58;96793.31;;;12.35;100.00
47366;BME280;33105;47.964;7.982;2023-11-19T08:37:00;96796.88;;;12.50;100.00
47366;BME280;33105;47.964;7.982;2023-11-19T08:40:01;96797.41;;;12.47;100.00
47366;BME280;33105;47.964;7.982;2023-11-19T08:43:03;96794.97;;;12.56;100.00
47366;BME280;33105;47.964;7.982;2023-11-19T08:46:14;96793.56;;;12.64;100.00
47366;BME280;33105;47.964;7.982;2023-11-19T08:49:16;96785.06;;;12.95;99.21
47366;BME280;33105;47.964;7.982;2023-11-19T08:52:18;96783.44;;;12.84;100.00
47366;BME280;33105;47.964;7.982;2023-11-19T08:55:20;96771.94;;;12.82;100.00
47366;BME280;33105;47.964;7.982;2023-11-19T08:58:21;96777.41;;;12.82;100.00
47366;BME280;33105;47.964;7.982;2023-11-19T09:01:23;96783.97;;;13.07;99.33
47366;BME280;33105;47.964;7.982;2023-11-19T09:04:26;96783.41;;;13.10;99.63
47366;BME280;33105;47.964;7.982;2023-11-19T09:07:27;96794.38;;;13.10;97.64
47366;BME280;33105;47.964;7.982;2023-11-19T09:10:28;96787.78;;;13.16;92.89
47366;BME280;33105;47.964;7.982;2023-11-19T09:13:31;96793.81;;;13.23;95.02
47366;BME280;33105;47.964;7.982;2023-11-19T09:16:34;96783.69;;;13.08;95.37
47366;BME280;33105;47.964;7.982;2023-11-19T09:19:36;96785.06;;;13.16;93.86
47366;BME280;33105;47.964;7.982;2023-11-19T09:22:37;96790.53;;;13.06;98.99
47366;BME280;33105;47.964;7.982;2023-11-19T09:25:38;96798.22;;;12.99;98.52
47366;BME280;33105;47.964;7.982;2023-11-19T09:28:40;96793.56;;;13.19;93.51
47366;BME280;33105;47.964;7.982;2023-11-19T09:31:42;96800.09;;;13.13;93.46
47366;BME280;33105;47.964;7.982;2023-11-19T09:34:43;96805.91;;;13.07;95.34
47366;BME280;33105;47.964;7.982;2023-11-19T09:37:45;96815.50;;;13.19;95.01
47366;BME280;33105;47.964;7.982;2023-11-19T09:40:47;96815.50;;;12.94;97.70
47366;BME280;33105;47.964;7.982;2023-11-19T09:43:49;96814.69;;;13.04;94.83
47366;BME280;33105;47.964;7.982;2023-11-19T09:46:52;96817.41;;;12.93;95.15
47366;BME280;33105;47.964;7.982;2023-11-19T09:49:54;96819.38;;;12.83;96.65
47366;BME280;33105;47.964;7.982;2023-11-19T09:52:56;96810.28;;;12.92;93.70
47366;BME280;33105;47.964;7.982;2023-11-19T09:56:03;96810.84;;;12.89;97.30
47366;BME280;33105;47.964;7.982;2023-11-19T09:59:05;96813.84;;;12.88;95.76
47366;BME280;33105;47.964;7.982;2023-11-19T10:02:07;96797.13;;;13.10;93.84
47366;BME280;33105;47.964;7.982;2023-11-19T10:05:09;96804.25;;;13.26;93.85
47366;BME280;33105;47.964;7.982;2023-11-19T10:08:11;96808.34;;;13.13;94.64
47366;BME280;33105;47.964;7.982;2023-11-19T10:11:12;96803.69;;;13.19;97.09
47366;BME280;33105;47.964;7.982;2023-11-19T10:14:14;96796.84;;;13.11;96.07
47366;BME280;33105;47.964;7.982;2023-11-19T10:17:16;96788.88;;;13.25;96.29
47366;BME280;33105;47.964;7.982;2023-11-19T10:20:17;96797.09;;;13.35;92.63
47366;BME280;33105;47.964;7.982;2023-11-19T10:23:18;96797.38;;;13.34;92.56
47366;BME280;33105;47.964;7.982;2023-11-19T10:26:23;96801.72;;;13.40;93.11
47366;BME280;33105;47.964;7.982;2023-11-19T10:29:25;96798.16;;;13.39;95.46
47366;BME280;33105;47.964;7.982;2023-11-19T10:32:27;96802.78;;;13.59;93.84
47366;BME280;33105;47.964;7.982;2023-11-19T10:35:28;96789.00;;;13.69;93.23
47366;BME280;33105;47.964;7.982;2023-11-19T10:38:29;96785.34;;;13.89;89.73
47366;BME280;33105;47.964;7.982;2023-11-19T10:41:32;96774.69;;;13.82;89.72
47366;BME280;33105;47.964;7.982;2023-11-19T10:44:33;96783.13;;;13.96;90.03
47366;BME280;33105;47.964;7.982;2023-11-19T10:47:37;96769.91;;;14.03;88.30
47366;BME280;33105;47.964;7.982;2023-11-19T10:50:42;96776.09;;;14.19;90.94
47366;BME280;33105;47.964;7.982;2023-11-19T10:53:48;96776.91;;;14.24;87.82
47366;BME280;33105;47.964;7.982;2023-11-19T10:56:54;96772.13;;;14.45;89.43
47366;BME280;33105;47.964;7.982;2023-11-19T11:00:01;96758.09;;;14.47;84.89
47366;BME280;33105;47.964;7.982;2023-11-19T11:03:09;96765.84;;;14.35;84.06
47366;BME280;33105;47.964;7.982;2023-11-19T11:06:12;96767.72;;;14.00;85.37
47366;BME280;33105;47.964;7.982;2023-11-19T11:09:15;96768.28;;;13.97;85.85
47366;BME280;33105;47.964;7.982;2023-11-19T11:12:17;96781.97;;;14.07;88.15
47366;BME280;33105;47.964;7.982;2023-11-19T11:15:26;96766.38;;;14.37;83.84
47366;BME280;33105;47.964;7.982;2023-11-19T11:18:29;96755.50;;;14.60;81.88
47366;BME280;33105;47.964;7.982;2023-11-19T11:21:30;96759.59;;;14.63;83.07
47366;BME280;33105;47.964;7.982;2023-11-19T11:24:56;96757.09;;;14.67;79.73
47366;BME280;33105;47.964;7.982;2023-11-19T11:28:23;96762.22;;;14.39;85.39
47366;BME280;33105;47.964;7.982;2023-11-19T11:34:50;96752.16;;;14.97;79.98
47366;BME280;33105;47.964;7.982;2023-11-19T11:38:06;96756.03;;;14.91;83.27
47366;BME280;33105;47.964;7.982;2023-11-19T11:41:18;96757.44;;;14.89;82.74
47366;BME280;33105;47.964;7.982;2023-11-19T11:50:59;96736.75;;;14.68;80.45
47366;BME280;33105;47.964;7.982;2023-11-19T11:54:01;96753.00;;;14.64;82.16
47366;BME280;33105;47.964;7.982;2023-11-19T11:57:07;96752.50;;;14.13;85.12
47366;BME280;33105;47.964;7.982;2023-11-19T12:00:21;96749.63;;;13.94;83.57
47366;BME280;33105;47.964;7.982;2023-11-19T12:03:24;96750.25;;;13.81;86.04
47366;BME280;33105;47.964;7.982;2023-11-19T12:06:29;96748.72;;;13.59;88.69
47366;BME280;33105;47.964;7.982;2023-11-19T12:09:31;96740.47;;;13.59;87.27
47366;BME280;33105;47.964;7.982;2023-11-19T12:12:32;96745.91;;;13.65;86.03
47366;BME280;33105;47.964;7.982;2023-11-19T12:19:03;96749.00;;;13.53;88.47
47366;BME280;33105;47.964;7.982;2023-11-19T12:22:12;96738.56;;;13.60;87.87
47366;BME280;33105;47.964;7.982;2023-11-19T12:25:13;96737.25;;;13.42;89.93
47366;BME280;33105;47.964;7.982;2023-11-19T12:28:15;96741.00;;;13.61;89.58
47366;BME280;33105;47.964;7.982;2023-11-19T12:31:21;96738.66;;;13.89;88.56
47366;BME280;33105;47.964;7.982;2023-11-19T12:34:22;96726.13;;;13.73;86.51
47366;BME280;33105;47.964;7.982;2023-11-19T12:37:32;96734.03;;;13.84;84.91
47366;BME280;33105;47.964;7.982;2023-11-19T12:40:34;96732.31;;;13.93;84.62
47366;BME280;33105;47.964;7.982;2023-11-19T12:43:35;96730.63;;;14.03;84.65
47366;BME280;33105;47.964;7.982;2023-11-19T12:46:37;96720.97;;;14.10;84.85
47366;BME280;33105;47.964;7.982;2023-11-19T12:49:39;96723.63;;;14.20;84.63
47366;BME280;33105;47.964;7.982;2023-11-19T12:52:40;96722.53;;;14.21;81.65
47366;BME280;33105;47.964;7.982;2023-11-19T12:55:42;96723.09;;;14.18;81.76
47366;BME280;33105;47.964;7.982;2023-11-19T12:58:44;96715.16;;;14.12;83.11
47366;BME280;33105;47.964;7.982;2023-11-19T13:01:58;96723.78;;;13.95;83.79
47366;BME280;33105;47.964;7.982;2023-11-19T13:05:29;96722.22;;;13.84;85.56
47366;BME280;33105;47.964;7.982;2023-11-19T13:08:39;96718.59;;;13.88;85.01
47366;BME280;33105;47.964;7.982;2023-11-19T13:11:41;96715.31;;;13.86;83.55
47366;BME280;33105;47.964;7.982;2023-11-19T13:14:43;96720.66;;;13.62;84.58
47366;BME280;33105;47.964;7.982;2023-11-19T13:17:47;96719.28;;;13.65;85.69
47366;BME280;33105;47.964;7.982;2023-11-19T13:20:49;96719.28;;;13.65;86.04
47366;BME280;33105;47.964;7.982;2023-11-19T13:23:50;96722.38;;;13.53;84.55
47366;BME280;33105;47.964;7.982;2023-11-19T13:26:52;96713.44;;;13.27;87.57
47366;BME280;33105;47.964;7.982;2023-11-19T13:29:53;96706.03;;;13.13;86.97
47366;BME280;33105;47.964;7.982;2023-11-19T13:32:55;96704.09;;;13.34;84.06
47366;BME280;33105;47.964;7.982;2023-11-19T13:35:58;96701.09;;;13.25;84.56
47366;BME280;33105;47.964;7.982;2023-11-19T13:39:00;96700.75;;;13.37;83.30
47366;BME280;33105;47.964;7.982;2023-11-19T13:42:02;96697.81;;;13.23;86.04
47366;BME280;33105;47.964;7.982;2023-11-19T13:45:03;96678.81;;;13.37;83.05
47366;BME280;33105;47.964;7.982;2023-11-19T13:48:05;96687.84;;;13.42;81.67
47366;BME280;33105;47.964;7.982;2023-11-19T13:51:07;96679.31;;;13.44;83.72
47366;BME280;33105;47.964;7.982;2023-11-19T13:54:11;96682.91;;;13.39;81.85
47366;BME280;33105;47.964;7.982;2023-11-19T13:57:15;96670.28;;;13.38;81.76
47366;BME280;33105;47.964;7.982;2023-11-19T14:00:17;96667.06;;;13.31;82.98
47366;BME280;33105;47.964;7.982;2023-11-19T14:06:53;96661.28;;;13.33;81.74
47366;BME280;33105;47.964;7.982;2023-11-19T14:09:59;96650.34;;;13.27;79.14
47366;BME280;33105;47.964;7.982;2023-11-19T14:13:10;96667.06;;;13.31;75.84
47366;BME280;33105;47.964;7.982;2023-11-19T14:16:12;96663.50;;;13.31;76.29
47366;BME280;33105;47.964;7.982;2023-11-19T14:19:17;96670.66;;;13.16;80.29
47366;BME280;33105;47.964;7.982;2023-11-19T14:23:02;96672.09;;;12.99;78.96
47366;BME280;33105;47.964;7.982;2023-11-19T14:26:07;96670.41;;;13.08;76.76
47366;BME280;33105;47.964;7.982;2023-11-19T14:29:09;96671.47;;;13.12;75.05
47366;BME280;33105;47.964;7.982;2023-11-19T14:32:38;96668.47;;;13.18;73.03
47366;BME280;33105;47.964;7.982;2023-11-19T14:36:17;96672.09;;;12.93;71.82
47366;BME280;33105;47.964;7.982;2023-11-19T14:39:21;96679.81;;;12.86;75.06
47366;BME280;33105;47.964;7.982;2023-11-19T14:42:35;96678.66;;;12.92;72.93
47366;BME280;33105;47.964;7.982;2023-11-19T14:45:42;96667.50;;;12.69;74.06
47366;BME280;33105;47.964;7.982;2023-11-19T14:48:43;96674.91;;;12.68;74.01
47366;BME280;33105;47.964;7.982;2023-11-19T14:51:49;96682.88;;;12.54;75.61
47366;BME280;33105;47.964;7.982;2023-11-19T14:55:05;96702.88;;;12.60;75.39
47366;BME280;33105;47.964;7.982;2023-11-19T14:58:15;96708.91;;;12.47;75.65
47366;BME280;33105;47.964;7.982;2023-11-19T15:01:21;96696.59;;;12.49;74.97
47366;BME280;33105;47.964;7.982;2023-11-19T15:04:24;96695.47;;;12.55;73.22
47366;BME280;33105;47.964;7.982;2023-11-19T15:07:30;96703.72;;;12.50;73.69
47366;BME280;33105;47.964;7.982;2023-11-19T15:10:33;96689.47;;;12.53;73.80
47366;BME280;33105;47.964;7.982;2023-11-19T15:13:37;96694.66;;;12.55;72.83
47366;BME280;33105;47.964;7.982;2023-11-19T15:16:43;96699.06;;;12.51;73.54
47366;BME280;33105;47.964;7.982;2023-11-19T15:19:47;96699.06;;;12.36;75.23
47366;BME280;33105;47.964;7.982;2023-11-19T15:22:58;96688.38;;;12.44;75.01
47366;BME280;33105;47.964;7.982;2023-11-19T15:26:00;96685.63;;;12.39;73.18
47366;BME280;33105;47.964;7.982;2023-11-19T15:29:04;96680.16;;;12.09;76.20
47366;BME280;33105;47.964;7.982;2023-11-19T15:32:06;96684.25;;;12.21;75.46
47366;BME280;33105;47.964;7.982;2023-11-19T15:35:10;96687.56;;;12.29;75.09
47366;BME280;33105;47.964;7.982;2023-11-19T15:38:14;96675.50;;;12.24;74.58
47366;BME280;33105;47.964;7.982;2023-11-19T15:41:18;96677.16;;;12.25;73.74
47366;BME280;33105;47.964;7.982;2023-11-19T15:44:22;96674.69;;;12.29;73.96
47366;BME280;33105;47.964;7.982;2023-11-19T15:47:25;96684.53;;;12.20;75.38
47366;BME280;33105;47.964;7.982;2023-11-19T15:50:29;96679.59;;;12.17;74.27
47366;BME280;33105;47.964;7.982;2023-11-19T15:53:31;96694.41;;;12.31;73.90
47366;BME280;33105;47.964;7.982;2023-11-19T15:56:33;96681.00;;;12.30;72.87
47366;BME280;33105;47.964;7.982;2023-11-19T15:59:36;96677.97;;;12.36;72.91
47366;BME280;33105;47.964;7.982;2023-11-19T16:02:37;96668.66;;;12.22;75.09
47366;BME280;33105;47.964;7.982;2023-11-19T16:05:47;96671.94;;;12.19;75.17
47366;BME280;33105;47.964;7.982;2023-11-19T16:08:52;96677.16;;;12.25;73.16
47366;BME280;33105;47.964;7.982;2023-11-19T16:11:57;96677.41;;;12.14;76.43
47366;BME280;33105;47.964;7.982;2023-11-19T16:15:00;96695.50;;;12.20;76.85
47366;BME280;33105;47.964;7.982;2023-11-19T16:18:03;96693.00;;;11.83;80.28
47366;BME280;33105;47.964;7.982;2023-11-19T16:21:07;96693.03;;;12.13;76.36
47366;BME280;33105;47.964;7.982;2023-11-19T16:24:10;96692.75;;;12.05;78.05